sensor_id;sensor_type;location;lat;lon;timestamp;pressure;altitude;pressure_sealevel;temperature;humidity
6343;BME280;3204;42.698;23.298;2023-04-28T00:00:48;95127.22;;;8.68;54.69
6343;BME280;3204;42.698;23.298;2023-04-28T00:03:14;95116.50;;;8.63;54.59
6343;BME280;3204;42.698;23.298;2023-04-28T00:05:39;95122.75;;;8.58;54.74
6343;BME280;3204;42.698;23.298;2023-04-28T00:08:05;95132.84;;;8.53;54.84
6343;BME280;3204;42.698;23.298;2023-04-28T00:10:31;95127.44;;;8.53;55.19
6343;BME280;3204;42.698;23.298;2023-04-28T00:12:56;95127.94;;;8.55;55.39
6343;BME280;3204;42.698;23.298;2023-04-28T00:15:22;95128.63;;;8.47;54.79
6343;BME280;3204;42.698;23.298;2023-04-28T00:17:47;95132.41;;;8.46;55.35
6343;BME280;3204;42.698;23.298;2023-04-28T00:20:13;95130.44;;;8.33;55.60
6343;BME280;3204;42.698;23.298;2023-04-28T00:22:38;95132.53;;;8.36;55.57
6343;BME280;3204;42.698;23.298;2023-04-28T00:25:05;95126.47;;;8.25;55.20
6343;BME280;3204;42.698;23.298;2023-04-28T00:27:32;95127.81;;;8.23;55.35
6343;BME280;3204;42.698;23.298;2023-04-28T00:29:57;95127.78;;;8.28;55.82
6343;BME280;3204;42.698;23.298;2023-04-28T00:32:23;95130.53;;;8.23;55.24
6343;BME280;3204;42.698;23.298;2023-04-28T00:34:48;95135.66;;;8.24;55.78
6343;BME280;3204;42.698;23.298;2023-04-28T00:37:14;95142.38;;;8.27;55.61
6343;BME280;3204;42.698;23.298;2023-04-28T00:39:39;95133.81;;;8.20;56.11
6343;BME280;3204;42.698;23.298;2023-04-28T00:42:06;95147.84;;;8.22;55.90
6343;BME280;3204;42.698;23.298;2023-04-28T00:44:31;95137.06;;;8.17;56.08
6343;BME280;3204;42.698;23.298;2023-04-28T00:46:58;95143.13;;;8.09;55.85
6343;BME280;3204;42.698;23.298;2023-04-28T00:49:24;95144.72;;;8.10;56.02
6343;BME280;3204;42.698;23.298;2023-04-28T00:51:50;95140.94;;;8.11;56.42
6343;BME280;3204;42.698;23.298;2023-04-28T00:54:15;95139.88;;;8.07;56.12
6343;BME280;3204;42.698;23.298;2023-04-28T00:56:42;95141.34;;;7.99;56.14
6343;BME280;3204;42.698;23.298;2023-04-28T00:59:08;95138.63;;;7.99;56.39
6343;BME280;3204;42.698;23.298;2023-04-28T01:01:34;95143.88;;;7.91;56.61
6343;BME280;3204;42.698;23.298;2023-04-28T01:04:00;95151.22;;;7.85;56.85
6343;BME280;3204;42.698;23.298;2023-04-28T01:06:27;95144.72;;;7.86;56.70
6343;BME280;3204;42.698;23.298;2023-04-28T01:08:54;95153.41;;;7.83;56.48
6343;BME280;3204;42.698;23.298;2023-04-28T01:11:20;95156.84;;;7.89;57.01
6343;BME280;3204;42.698;23.298;2023-04-28T01:13:45;95150.41;;;7.85;56.99
6343;BME280;3204;42.698;23.298;2023-04-28T01:16:11;95153.16;;;7.80;57.02
6343;BME280;3204;42.698;23.298;2023-04-28T01:18:37;95155.91;;;7.75;57.17
6343;BME280;3204;42.698;23.298;2023-04-28T01:21:03;95161.06;;;7.71;57.28
6343;BME280;3204;42.698;23.298;2023-04-28T01:23:29;95154.31;;;7.74;57.70
6343;BME280;3204;42.698;23.298;2023-04-28T01:25:54;95160.81;;;7.73;57.53
6343;BME280;3204;42.698;23.298;2023-04-28T01:28:20;95151.88;;;7.72;57.18
6343;BME280;3204;42.698;23.298;2023-04-28T01:30:46;95156.44;;;7.77;57.11
6343;BME280;3204;42.698;23.298;2023-04-28T01:33:11;95150.34;;;7.66;57.13
6343;BME280;3204;42.698;23.298;2023-04-28T01:35:37;95149.28;;;7.62;57.79
6343;BME280;3204;42.698;23.298;2023-04-28T01:38:02;95154.13;;;7.65;57.03
6343;BME280;3204;42.698;23.298;2023-04-28T01:40:28;95155.72;;;7.66;56.78
6343;BME280;3204;42.698;23.298;2023-04-28T01:42:54;95156.81;;;7.65;56.65
6343;BME280;3204;42.698;23.298;2023-04-28T01:45:19;95159.34;;;7.57;57.30
6343;BME280;3204;42.698;23.298;2023-04-28T01:47:44;95155.34;;;7.49;57.25
6343;BME280;3204;42.698;23.298;2023-04-28T01:50:10;95157.78;;;7.51;57.07
6343;BME280;3204;42.698;23.298;2023-04-28T01:52:35;95155.16;;;7.41;57.83
6343;BME280;3204;42.698;23.298;2023-04-28T01:55:01;95140.69;;;7.32;57.93
6343;BME280;3204;42.698;23.298;2023-04-28T01:57:27;95162.75;;;7.39;58.19
6343;BME280;3204;42.698;23.298;2023-04-28T01:59:53;95154.66;;;7.39;57.89
6343;BME280;3204;42.698;23.298;2023-04-28T02:02:18;95155.44;;;7.39;57.29
6343;BME280;3204;42.698;23.298;2023-04-28T02:04:44;95165.72;;;7.37;56.96
6343;BME280;3204;42.698;23.298;2023-04-28T02:07:10;95160.59;;;7.36;57.52
6343;BME280;3204;42.698;23.298;2023-04-28T02:09:35;95159.28;;;7.33;57.95
6343;BME280;3204;42.698;23.298;2023-04-28T02:12:01;95163.34;;;7.31;57.79
6343;BME280;3204;42.698;23.298;2023-04-28T02:14:27;95170.06;;;7.33;57.50
6343;BME280;3204;42.698;23.298;2023-04-28T02:16:53;95169.28;;;7.33;58.23
6343;BME280;3204;42.698;23.298;2023-04-28T02:19:18;95177.63;;;7.36;57.23
6343;BME280;3204;42.698;23.298;2023-04-28T02:21:44;95175.78;;;7.27;58.08
6343;BME280;3204;42.698;23.298;2023-04-28T02:24:09;95173.69;;;7.24;57.65
6343;BME280;3204;42.698;23.298;2023-04-28T02:26:35;95177.75;;;7.21;58.04
6343;BME280;3204;42.698;23.298;2023-04-28T02:29:00;95181.22;;;7.22;58.00
6343;BME280;3204;42.698;23.298;2023-04-28T02:31:28;95183.97;;;7.17;58.15
6343;BME280;3204;42.698;23.298;2023-04-28T02:33:54;95187.56;;;7.07;58.47
6343;BME280;3204;42.698;23.298;2023-04-28T02:36:20;95187.53;;;7.12;58.22
6343;BME280;3204;42.698;23.298;2023-04-28T02:38:45;95185.97;;;7.01;58.70
6343;BME280;3204;42.698;23.298;2023-04-28T02:41:10;95180.56;;;7.01;58.38
6343;BME280;3204;42.698;23.298;2023-04-28T02:43:36;95188.97;;;6.95;59.07
6343;BME280;3204;42.698;23.298;2023-04-28T02:46:03;95193.31;;;6.96;58.71
6343;BME280;3204;42.698;23.298;2023-04-28T02:48:29;95188.69;;;6.96;59.16
6343;BME280;3204;42.698;23.298;2023-04-28T02:50:54;95196.19;;;7.04;59.62
6343;BME280;3204;42.698;23.298;2023-04-28T02:53:21;95195.38;;;7.04;58.49
6343;BME280;3204;42.698;23.298;2023-04-28T02:55:46;95190.28;;;7.02;58.50
6343;BME280;3204;42.698;23.298;2023-04-28T02:58:12;95185.41;;;7.04;58.91
6343;BME280;3204;42.698;23.298;2023-04-28T03:00:38;95194.59;;;7.03;58.60
6343;BME280;3204;42.698;23.298;2023-04-28T03:03:03;95190.59;;;6.96;58.59
6343;BME280;3204;42.698;23.298;2023-04-28T03:05:29;95204.31;;;6.99;58.45
6343;BME280;3204;42.698;23.298;2023-04-28T03:07:54;95207.84;;;6.95;58.85
6343;BME280;3204;42.698;23.298;2023-04-28T03:10:20;95208.72;;;6.85;59.07
6343;BME280;3204;42.698;23.298;2023-04-28T03:12:45;95204.69;;;6.83;59.24
6343;BME280;3204;42.698;23.298;2023-04-28T03:15:11;95212.25;;;6.86;59.54
6343;BME280;3204;42.698;23.298;2023-04-28T03:17:36;95210.09;;;6.83;59.84
6343;BME280;3204;42.698;23.298;2023-04-28T03:20:06;95214.41;;;6.84;59.31
6343;BME280;3204;42.698;23.298;2023-04-28T03:22:31;95202.78;;;6.88;59.56
6343;BME280;3204;42.698;23.298;2023-04-28T03:24:57;95217.91;;;6.84;59.30
6343;BME280;3204;42.698;23.298;2023-04-28T03:27:22;95221.69;;;6.83;59.54
6343;BME280;3204;42.698;23.298;2023-04-28T03:29:48;95230.06;;;6.82;59.51
6343;BME280;3204;42.698;23.298;2023-04-28T03:32:13;95221.72;;;6.73;59.66
6343;BME280;3204;42.698;23.298;2023-04-28T03:34:39;95241.09;;;6.80;58.98
6343;BME280;3204;42.698;23.298;2023-04-28T03:37:04;95242.97;;;6.85;59.23
6343;BME280;3204;42.698;23.298;2023-04-28T03:39:30;95250.22;;;6.89;58.71
6343;BME280;3204;42.698;23.298;2023-04-28T03:41:55;95243.53;;;6.82;58.82
6343;BME280;3204;42.698;23.298;2023-04-28T03:44:21;95246.97;;;6.87;58.75
6343;BME280;3204;42.698;23.298;2023-04-28T03:46:48;95244.53;;;6.96;58.17
6343;BME280;3204;42.698;23.298;2023-04-28T03:49:13;95248.84;;;6.97;58.09
6343;BME280;3204;42.698;23.298;2023-04-28T03:51:39;95252.34;;;6.97;58.68
6343;BME280;3204;42.698;23.298;2023-04-28T03:54:05;95255.28;;;7.01;59.01
6343;BME280;3204;42.698;23.298;2023-04-28T03:56:31;95263.34;;;7.06;58.47
6343;BME280;3204;42.698;23.298;2023-04-28T03:58:56;95266.53;;;7.13;57.43
6343;BME280;3204;42.698;23.298;2023-04-28T04:01:22;95270.84;;;7.14;58.00
6343;BME280;3204;42.698;23.298;2023-04-28T04:03:48;95271.44;;;7.06;57.72
6343;BME280;3204;42.698;23.298;2023-04-28T04:06:13;95275.16;;;7.15;57.99
6343;BME280;3204;42.698;23.298;2023-04-28T04:08:39;95271.53;;;7.29;56.95
6343;BME280;3204;42.698;23.298;2023-04-28T04:11:05;95283.69;;;7.27;57.36
6343;BME280;3204;42.698;23.298;2023-04-28T04:13:30;95268.81;;;7.34;56.90
6343;BME280;3204;42.698;23.298;2023-04-28T04:15:56;95279.78;;;7.48;56.81
6343;BME280;3204;42.698;23.298;2023-04-28T04:18:21;95277.47;;;7.65;55.69
6343;BME280;3204;42.698;23.298;2023-04-28T04:20:47;95280.72;;;7.67;56.19
6343;BME280;3204;42.698;23.298;2023-04-28T04:23:13;95284.66;;;7.79;55.51
6343;BME280;3204;42.698;23.298;2023-04-28T04:25:39;95276.28;;;7.81;55.08
6343;BME280;3204;42.698;23.298;2023-04-28T04:28:04;95292.63;;;7.94;54.73
6343;BME280;3204;42.698;23.298;2023-04-28T04:30:30;95290.81;;;7.85;55.04
6343;BME280;3204;42.698;23.298;2023-04-28T04:32:55;95288.56;;;7.97;54.52
6343;BME280;3204;42.698;23.298;2023-04-28T04:35:20;95291.25;;;7.97;54.37
6343;BME280;3204;42.698;23.298;2023-04-28T04:37:46;95294.69;;;8.07;54.53
6343;BME280;3204;42.698;23.298;2023-04-28T04:40:11;95296.28;;;8.08;54.02
6343;BME280;3204;42.698;23.298;2023-04-28T04:42:37;95294.63;;;8.12;54.19
6343;BME280;3204;42.698;23.298;2023-04-28T04:45:02;95302.78;;;8.07;54.92
6343;BME280;3204;42.698;23.298;2023-04-28T04:47:28;95305.75;;;8.06;54.88
6343;BME280;3204;42.698;23.298;2023-04-28T04:49:53;95302.44;;;8.14;54.41
6343;BME280;3204;42.698;23.298;2023-04-28T04:52:19;95302.41;;;8.19;54.20
6343;BME280;3204;42.698;23.298;2023-04-28T04:54:45;95300.31;;;8.11;54.38
6343;BME280;3204;42.698;23.298;2023-04-28T04:57:11;95315.88;;;8.24;54.55
6343;BME280;3204;42.698;23.298;2023-04-28T04:59:36;95307.34;;;8.40;54.37
6343;BME280;3204;42.698;23.298;2023-04-28T05:02:02;95316.13;;;8.51;53.71
6343;BME280;3204;42.698;23.298;2023-04-28T05:04:27;95326.38;;;8.54;53.65
6343;BME280;3204;42.698;23.298;2023-04-28T05:06:53;95329.66;;;8.51;54.42
6343;BME280;3204;42.698;23.298;2023-04-28T05:09:18;95328.97;;;8.64;53.54
6343;BME280;3204;42.698;23.298;2023-04-28T05:11:44;95315.34;;;8.74;53.65
6343;BME280;3204;42.698;23.298;2023-04-28T05:14:10;95316.19;;;8.93;52.78
6343;BME280;3204;42.698;23.298;2023-04-28T05:16:37;95317.75;;;8.99;53.32
6343;BME280;3204;42.698;23.298;2023-04-28T05:19:03;95314.91;;;9.09;52.37
6343;BME280;3204;42.698;23.298;2023-04-28T05:21:28;95329.59;;;9.03;52.02
6343;BME280;3204;42.698;23.298;2023-04-28T05:23:54;95324.09;;;9.08;51.94
6343;BME280;3204;42.698;23.298;2023-04-28T05:26:20;95331.72;;;9.06;52.59
6343;BME280;3204;42.698;23.298;2023-04-28T05:28:45;95317.44;;;9.00;52.39
6343;BME280;3204;42.698;23.298;2023-04-28T05:31:11;95327.00;;;9.16;52.65
6343;BME280;3204;42.698;23.298;2023-04-28T05:33:36;95326.03;;;9.26;52.45
6343;BME280;3204;42.698;23.298;2023-04-28T05:36:02;95320.00;;;9.34;51.98
6343;BME280;3204;42.698;23.298;2023-04-28T05:38:27;95320.66;;;9.44;51.96
6343;BME280;3204;42.698;23.298;2023-04-28T05:40:53;95325.03;;;9.59;52.09
6343;BME280;3204;42.698;23.298;2023-04-28T05:43:19;95317.13;;;9.62;50.84
6343;BME280;3204;42.698;23.298;2023-04-28T05:45:44;95318.31;;;9.75;50.77
6343;BME280;3204;42.698;23.298;2023-04-28T05:48:10;95325.91;;;9.73;51.31
6343;BME280;3204;42.698;23.298;2023-04-28T05:50:35;95317.22;;;9.76;50.60
6343;BME280;3204;42.698;23.298;2023-04-28T05:53:01;95325.69;;;9.69;50.87
6343;BME280;3204;42.698;23.298;2023-04-28T05:55:26;95318.31;;;9.75;51.20
6343;BME280;3204;42.698;23.298;2023-04-28T05:57:52;95319.31;;;9.79;51.62
6343;BME280;3204;42.698;23.298;2023-04-28T06:00:18;95323.91;;;9.97;50.45
6343;BME280;3204;42.698;23.298;2023-04-28T06:02:44;95328.31;;;10.11;50.47
6343;BME280;3204;42.698;23.298;2023-04-28T06:05:09;95328.53;;;10.15;50.32
6343;BME280;3204;42.698;23.298;2023-04-28T06:07:35;95331.34;;;10.23;50.09
6343;BME280;3204;42.698;23.298;2023-04-28T06:10:00;95330.38;;;10.33;50.71
6343;BME280;3204;42.698;23.298;2023-04-28T06:12:26;95329.91;;;10.44;49.65
6343;BME280;3204;42.698;23.298;2023-04-28T06:14:52;95322.22;;;10.65;49.38
6343;BME280;3204;42.698;23.298;2023-04-28T06:17:19;95325.81;;;10.60;48.46
6343;BME280;3204;42.698;23.298;2023-04-28T06:19:45;95331.75;;;10.76;48.50
6343;BME280;3204;42.698;23.298;2023-04-28T06:22:10;95328.66;;;10.96;48.22
6343;BME280;3204;42.698;23.298;2023-04-28T06:24:36;95334.41;;;11.08;48.11
6343;BME280;3204;42.698;23.298;2023-04-28T06:27:01;95329.03;;;11.30;48.10
6343;BME280;3204;42.698;23.298;2023-04-28T06:29:27;95337.69;;;11.32;47.57
6343;BME280;3204;42.698;23.298;2023-04-28T06:31:52;95328.22;;;11.43;47.27
6343;BME280;3204;42.698;23.298;2023-04-28T06:34:25;95337.00;;;11.75;46.80
6343;BME280;3204;42.698;23.298;2023-04-28T06:36:57;95324.59;;;11.83;46.95
6343;BME280;3204;42.698;23.298;2023-04-28T06:39:22;95342.78;;;11.96;46.87
6343;BME280;3204;42.698;23.298;2023-04-28T06:41:48;95322.88;;;11.87;45.82
6343;BME280;3204;42.698;23.298;2023-04-28T06:44:13;95315.00;;;11.99;46.38
6343;BME280;3204;42.698;23.298;2023-04-28T06:46:39;95327.25;;;12.32;45.69
6343;BME280;3204;42.698;23.298;2023-04-28T06:49:04;95330.81;;;12.19;46.02
6343;BME280;3204;42.698;23.298;2023-04-28T06:51:30;95330.56;;;12.29;45.62
6343;BME280;3204;42.698;23.298;2023-04-28T06:53:59;95307.50;;;12.48;45.35
6343;BME280;3204;42.698;23.298;2023-04-28T06:56:25;95312.94;;;12.48;44.79
6343;BME280;3204;42.698;23.298;2023-04-28T06:58:51;95328.47;;;12.78;45.04
6343;BME280;3204;42.698;23.298;2023-04-28T07:01:16;95321.13;;;13.18;44.67
6343;BME280;3204;42.698;23.298;2023-04-28T07:03:42;95326.66;;;13.43;43.07
6343;BME280;3204;42.698;23.298;2023-04-28T07:06:07;95316.28;;;13.79;42.66
6343;BME280;3204;42.698;23.298;2023-04-28T07:08:33;95319.84;;;13.97;43.01
6343;BME280;3204;42.698;23.298;2023-04-28T07:10:59;95320.78;;;14.18;41.34
6343;BME280;3204;42.698;23.298;2023-04-28T07:13:28;95311.31;;;14.07;41.62
6343;BME280;3204;42.698;23.298;2023-04-28T07:15:54;95316.78;;;14.07;41.40
6343;BME280;3204;42.698;23.298;2023-04-28T07:18:20;95321.47;;;13.25;42.25
6343;BME280;3204;42.698;23.298;2023-04-28T07:20:45;95323.78;;;13.57;42.16
6343;BME280;3204;42.698;23.298;2023-04-28T07:23:12;95312.91;;;13.91;40.02
6343;BME280;3204;42.698;23.298;2023-04-28T07:25:38;95318.03;;;14.52;39.28
6343;BME280;3204;42.698;23.298;2023-04-28T07:28:05;95309.72;;;14.40;39.82
6343;BME280;3204;42.698;23.298;2023-04-28T07:30:30;95285.31;;;14.09;39.92
6343;BME280;3204;42.698;23.298;2023-04-28T07:32:56;95309.38;;;14.50;39.79
6343;BME280;3204;42.698;23.298;2023-04-28T07:35:22;95307.09;;;14.69;38.93
6343;BME280;3204;42.698;23.298;2023-04-28T07:37:48;95317.63;;;14.87;38.62
6343;BME280;3204;42.698;23.298;2023-04-28T07:40:13;95313.06;;;15.00;38.67
6343;BME280;3204;42.698;23.298;2023-04-28T07:42:39;95309.88;;;15.35;37.76
6343;BME280;3204;42.698;23.298;2023-04-28T07:45:05;95310.94;;;15.51;37.56
6343;BME280;3204;42.698;23.298;2023-04-28T07:47:30;95318.78;;;15.82;36.81
6343;BME280;3204;42.698;23.298;2023-04-28T07:49:56;95307.50;;;15.63;36.46
6343;BME280;3204;42.698;23.298;2023-04-28T07:52:21;95307.91;;;15.44;36.79
6343;BME280;3204;42.698;23.298;2023-04-28T07:54:47;95298.31;;;15.01;37.41
6343;BME280;3204;42.698;23.298;2023-04-28T07:57:12;95304.59;;;14.93;38.01
6343;BME280;3204;42.698;23.298;2023-04-28T07:59:38;95296.50;;;15.42;37.67
6343;BME280;3204;42.698;23.298;2023-04-28T08:02:03;95314.66;;;15.96;37.04
6343;BME280;3204;42.698;23.298;2023-04-28T08:04:30;95315.94;;;16.40;36.58
6343;BME280;3204;42.698;23.298;2023-04-28T08:06:58;95307.94;;;16.26;35.85
6343;BME280;3204;42.698;23.298;2023-04-28T08:09:24;95302.34;;;16.02;36.09
6343;BME280;3204;42.698;23.298;2023-04-28T08:11:49;95302.69;;;15.60;35.74
6343;BME280;3204;42.698;23.298;2023-04-28T08:14:15;95304.94;;;15.58;35.97
6343;BME280;3204;42.698;23.298;2023-04-28T08:16:40;95298.38;;;15.79;35.77
6343;BME280;3204;42.698;23.298;2023-04-28T08:19:06;95308.63;;;16.03;35.81
6343;BME280;3204;42.698;23.298;2023-04-28T08:21:32;95303.50;;;16.22;34.93
6343;BME280;3204;42.698;23.298;2023-04-28T08:23:58;95306.22;;;16.22;35.12
6343;BME280;3204;42.698;23.298;2023-04-28T08:26:24;95306.78;;;15.74;35.72
6343;BME280;3204;42.698;23.298;2023-04-28T08:28:50;95303.38;;;15.98;35.82
6343;BME280;3204;42.698;23.298;2023-04-28T08:31:16;95294.81;;;15.79;35.71
6343;BME280;3204;42.698;23.298;2023-04-28T08:33:42;95299.13;;;15.39;36.43
6343;BME280;3204;42.698;23.298;2023-04-28T08:36:13;95299.59;;;14.95;36.12
6343;BME280;3204;42.698;23.298;2023-04-28T08:38:39;95293.47;;;15.35;35.88
6343;BME280;3204;42.698;23.298;2023-04-28T08:41:06;95298.47;;;16.24;35.48
6343;BME280;3204;42.698;23.298;2023-04-28T08:43:34;95307.91;;;17.12;34.82
6343;BME280;3204;42.698;23.298;2023-04-28T08:46:04;95307.03;;;17.68;33.84
6343;BME280;3204;42.698;23.298;2023-04-28T08:48:36;95295.50;;;17.51;33.15
6343;BME280;3204;42.698;23.298;2023-04-28T08:51:04;95298.34;;;17.54;33.58
6343;BME280;3204;42.698;23.298;2023-04-28T08:53:31;95289.41;;;17.81;32.53
6343;BME280;3204;42.698;23.298;2023-04-28T08:55:59;95290.03;;;17.51;32.61
6343;BME280;3204;42.698;23.298;2023-04-28T08:58:26;95292.72;;;17.15;33.59
6343;BME280;3204;42.698;23.298;2023-04-28T09:00:54;95286.44;;;17.74;32.52
6343;BME280;3204;42.698;23.298;2023-04-28T09:03:20;95288.41;;;18.13;32.08
6343;BME280;3204;42.698;23.298;2023-04-28T09:05:46;95289.25;;;18.69;31.48
6343;BME280;3204;42.698;23.298;2023-04-28T09:08:11;95284.44;;;19.09;30.64
6343;BME280;3204;42.698;23.298;2023-04-28T09:10:37;95283.47;;;19.32;30.58
6343;BME280;3204;42.698;23.298;2023-04-28T09:13:03;95283.63;;;19.08;29.91
6343;BME280;3204;42.698;23.298;2023-04-28T09:15:32;95277.69;;;19.37;30.49
6343;BME280;3204;42.698;23.298;2023-04-28T09:17:58;95263.16;;;18.63;30.32
6343;BME280;3204;42.698;23.298;2023-04-28T09:20:26;95266.63;;;18.60;30.60
6343;BME280;3204;42.698;23.298;2023-04-28T09:22:53;95264.75;;;18.48;30.03
6343;BME280;3204;42.698;23.298;2023-04-28T09:25:20;95261.50;;;18.89;30.08
6343;BME280;3204;42.698;23.298;2023-04-28T09:27:47;95260.91;;;18.96;30.02
6343;BME280;3204;42.698;23.298;2023-04-28T09:30:12;95269.44;;;19.06;30.00
6343;BME280;3204;42.698;23.298;2023-04-28T09:32:38;95261.72;;;19.43;29.66
6343;BME280;3204;42.698;23.298;2023-04-28T09:35:04;95256.41;;;19.84;28.59
6343;BME280;3204;42.698;23.298;2023-04-28T09:37:32;95253.97;;;19.98;28.44
6343;BME280;3204;42.698;23.298;2023-04-28T09:40:09;95253.31;;;19.36;28.49
6343;BME280;3204;42.698;23.298;2023-04-28T09:42:39;95241.66;;;18.65;29.01
6343;BME280;3204;42.698;23.298;2023-04-28T09:45:10;95243.66;;;18.52;29.95
6343;BME280;3204;42.698;23.298;2023-04-28T09:47:45;95232.53;;;18.33;30.00
6343;BME280;3204;42.698;23.298;2023-04-28T09:50:14;95237.53;;;18.43;30.41
6343;BME280;3204;42.698;23.298;2023-04-28T09:52:42;95233.38;;;18.49;30.18
6343;BME280;3204;42.698;23.298;2023-04-28T09:55:10;95238.03;;;19.07;29.08
6343;BME280;3204;42.698;23.298;2023-04-28T09:57:37;95230.94;;;19.22;28.57
6343;BME280;3204;42.698;23.298;2023-04-28T10:00:04;95224.13;;;19.31;27.52
6343;BME280;3204;42.698;23.298;2023-04-28T10:02:31;95222.53;;;19.30;28.23
6343;BME280;3204;42.698;23.298;2023-04-28T10:04:57;95229.25;;;19.17;28.28
6343;BME280;3204;42.698;23.298;2023-04-28T10:07:22;95223.53;;;18.64;29.85
6343;BME280;3204;42.698;23.298;2023-04-28T10:09:49;95211.84;;;19.13;28.80
6343;BME280;3204;42.698;23.298;2023-04-28T10:12:19;95214.75;;;19.86;27.86
6343;BME280;3204;42.698;23.298;2023-04-28T10:14:45;95211.84;;;20.13;27.00
6343;BME280;3204;42.698;23.298;2023-04-28T10:17:15;95206.09;;;20.41;26.82
6343;BME280;3204;42.698;23.298;2023-04-28T10:19:43;95212.31;;;19.65;27.20
6343;BME280;3204;42.698;23.298;2023-04-28T10:27:48;95202.75;;;18.35;28.34
6343;BME280;3204;42.698;23.298;2023-04-28T10:30:19;95194.44;;;18.20;28.98
6343;BME280;3204;42.698;23.298;2023-04-28T10:32:45;95195.19;;;18.32;29.15
6343;BME280;3204;42.698;23.298;2023-04-28T10:40:36;95193.72;;;18.07;29.65
6343;BME280;3204;42.698;23.298;2023-04-28T10:43:03;95184.28;;;18.20;29.07
6343;BME280;3204;42.698;23.298;2023-04-28T10:48:16;95174.91;;;18.95;28.33
6343;BME280;3204;42.698;23.298;2023-04-28T10:56:21;95167.50;;;19.65;27.75
6343;BME280;3204;42.698;23.298;2023-04-28T10:58:48;95172.50;;;19.97;27.29
6343;BME280;3204;42.698;23.298;2023-04-28T11:08:50;95159.59;;;20.39;25.93
6343;BME280;3204;42.698;23.298;2023-04-28T11:11:20;95149.91;;;19.88;25.71
6343;BME280;3204;42.698;23.298;2023-04-28T11:13:47;95159.84;;;20.31;25.78
6343;BME280;3204;42.698;23.298;2023-04-28T11:16:14;95154.06;;;20.17;26.04
6343;BME280;3204;42.698;23.298;2023-04-28T11:19:00;95147.00;;;20.61;25.28
6343;BME280;3204;42.698;23.298;2023-04-28T11:21:30;95142.66;;;21.05;25.04
6343;BME280;3204;42.698;23.298;2023-04-28T11:23:57;95136.94;;;21.43;25.15
6343;BME280;3204;42.698;23.298;2023-04-28T11:26:23;95133.16;;;21.80;24.30
6343;BME280;3204;42.698;23.298;2023-04-28T11:28:50;95140.13;;;22.00;24.62
6343;BME280;3204;42.698;23.298;2023-04-28T11:31:17;95135.03;;;21.73;24.95
6343;BME280;3204;42.698;23.298;2023-04-28T11:34:03;95133.38;;;21.16;25.88
6343;BME280;3204;42.698;23.298;2023-04-28T11:36:39;95135.97;;;20.38;26.31
6343;BME280;3204;42.698;23.298;2023-04-28T11:39:08;95123.81;;;20.20;26.09
6343;BME280;3204;42.698;23.298;2023-04-28T11:41:35;95125.88;;;19.66;27.13
6343;BME280;3204;42.698;23.298;2023-04-28T11:44:18;95113.13;;;20.38;26.52
6343;BME280;3204;42.698;23.298;2023-04-28T11:46:53;95111.91;;;20.80;26.65
6343;BME280;3204;42.698;23.298;2023-04-28T11:49:26;95108.88;;;21.37;25.58
6343;BME280;3204;42.698;23.298;2023-04-28T11:51:55;95108.47;;;21.65;25.11
6343;BME280;3204;42.698;23.298;2023-04-28T11:54:23;95109.09;;;21.25;25.90
6343;BME280;3204;42.698;23.298;2023-04-28T11:56:51;95110.03;;;20.01;27.26
6343;BME280;3204;42.698;23.298;2023-04-28T11:59:16;95100.97;;;20.20;27.10
6343;BME280;3204;42.698;23.298;2023-04-28T12:01:51;95098.50;;;20.56;27.34
6343;BME280;3204;42.698;23.298;2023-04-28T12:07:13;95107.13;;;20.32;26.93
6343;BME280;3204;42.698;23.298;2023-04-28T12:09:40;95104.91;;;20.19;27.24
6343;BME280;3204;42.698;23.298;2023-04-28T12:12:07;95097.34;;;20.57;27.35
6343;BME280;3204;42.698;23.298;2023-04-28T12:14:54;95091.84;;;21.32;26.13
6343;BME280;3204;42.698;23.298;2023-04-28T12:17:28;95085.47;;;21.28;26.42
6343;BME280;3204;42.698;23.298;2023-04-28T12:19:54;95071.00;;;20.60;26.43
6343;BME280;3204;42.698;23.298;2023-04-28T12:22:20;95075.16;;;19.48;27.54
6343;BME280;3204;42.698;23.298;2023-04-28T12:27:30;95070.28;;;19.23;28.72
6343;BME280;3204;42.698;23.298;2023-04-28T12:29:56;95076.13;;;20.16;27.71
6343;BME280;3204;42.698;23.298;2023-04-28T12:32:38;95063.41;;;20.79;26.74
6343;BME280;3204;42.698;23.298;2023-04-28T12:35:05;95067.47;;;20.63;26.62
6343;BME280;3204;42.698;23.298;2023-04-28T12:37:30;95062.28;;;20.58;26.83
6343;BME280;3204;42.698;23.298;2023-04-28T12:39:57;95066.44;;;20.93;27.05
6343;BME280;3204;42.698;23.298;2023-04-28T12:42:22;95054.81;;;20.58;26.61
6343;BME280;3204;42.698;23.298;2023-04-28T12:44:48;95050.94;;;20.85;26.91
6343;BME280;3204;42.698;23.298;2023-04-28T12:47:14;95058.63;;;21.25;26.38
6343;BME280;3204;42.698;23.298;2023-04-28T12:49:42;95057.38;;;20.93;26.50
6343;BME280;3204;42.698;23.298;2023-04-28T12:52:08;95057.00;;;20.04;27.27
6343;BME280;3204;42.698;23.298;2023-04-28T12:54:34;95058.88;;;20.19;27.21
6343;BME280;3204;42.698;23.298;2023-04-28T12:57:00;95055.34;;;19.81;27.42
6343;BME280;3204;42.698;23.298;2023-04-28T12:59:27;95053.22;;;19.93;27.79
6343;BME280;3204;42.698;23.298;2023-04-28T13:01:53;95042.09;;;20.28;27.48
6343;BME280;3204;42.698;23.298;2023-04-28T13:04:19;95043.66;;;20.74;27.59
6343;BME280;3204;42.698;23.298;2023-04-28T13:06:45;95036.91;;;20.71;27.00
6343;BME280;3204;42.698;23.298;2023-04-28T13:09:14;95035.06;;;20.79;26.63
6343;BME280;3204;42.698;23.298;2023-04-28T13:11:40;95032.47;;;20.89;26.68
6343;BME280;3204;42.698;23.298;2023-04-28T13:14:07;95026.63;;;21.20;26.33
6343;BME280;3204;42.698;23.298;2023-04-28T13:16:33;95029.16;;;21.32;26.77
6343;BME280;3204;42.698;23.298;2023-04-28T13:18:59;95026.59;;;21.46;26.72
6343;BME280;3204;42.698;23.298;2023-04-28T13:21:25;95027.56;;;21.64;26.36
6343;BME280;3204;42.698;23.298;2023-04-28T13:23:52;95030.69;;;21.92;25.62
6343;BME280;3204;42.698;23.298;2023-04-28T13:26:19;95030.88;;;22.10;25.53
6343;BME280;3204;42.698;23.298;2023-04-28T13:28:46;95029.78;;;22.18;25.31
6343;BME280;3204;42.698;23.298;2023-04-28T13:31:15;95031.09;;;21.61;25.91
6343;BME280;3204;42.698;23.298;2023-04-28T13:33:40;95024.28;;;21.81;25.96
6343;BME280;3204;42.698;23.298;2023-04-28T13:36:06;95022.66;;;22.13;25.55
6343;BME280;3204;42.698;23.298;2023-04-28T13:38:33;95033.84;;;22.27;25.05
6343;BME280;3204;42.698;23.298;2023-04-28T13:40:58;95027.00;;;22.18;24.92
6343;BME280;3204;42.698;23.298;2023-04-28T13:43:25;95024.94;;;21.42;25.91